コペンハーゲン の空港の天気 - METARとTAF

コペンハーゲン国際空港 ( EKCH / CPH ) - デンマーク コペンハーゲン
飛行場実況気象(Metar)
観測時間11/30 17:50 CET (11/30 16:50 UTC)
風向・風速北東 5m/s
視程10km以上
天気現象弱い雨
全天を覆う雲 雲底高度 1280m
気温4℃
湿度93%
気圧1029hPa
METAREKCH 301650Z AUTO 05010KT 9999 -RA OVC042/// 04/03 Q1029 NOSIG
過去の天気等 Google飛行場航空写真 Wunderground天気予報

過去48時間のMETAR

飛行場予報(TAF)
発表時間: 11/30 12:08 CET (11/30 11:08 UTC)
予報対象時間: 30日13時 CET ~ 1日13時 CET
風向・風速東 6m/s
視程10km以上
全天の8割程度の雲 雲底高度 910m
30日17時 CET ~ 1日7時 CET に一時的に
全天の8割程度の雲 雲底高度 370m
1日7時 CET ~ 1日13時 CET に一時的に
全天の8割程度の雲 雲底高度 240m
TAF EKCH 301108Z 3012/0112 08012KT 9999 BKN030
TEMPO 3016/0106 BKN012
TEMPO 0106/0112 BKN008